createdAt,value
2023-03-21T00:01:53.975Z,4.75
2023-03-21T00:04:24.877Z,4.73
2023-03-21T00:06:54.138Z,4.70
2023-03-21T00:09:22.469Z,4.69
2023-03-21T00:11:53.708Z,4.64
2023-03-21T00:14:23.804Z,4.58
2023-03-21T00:16:53.738Z,4.52
2023-03-21T00:19:26.937Z,4.49
2023-03-21T00:22:06.900Z,4.46
2023-03-21T00:24:36.942Z,4.40
2023-03-21T00:29:57.110Z,4.32
2023-03-21T00:32:28.870Z,4.29
2023-03-21T00:35:23.303Z,4.26
2023-03-21T00:37:49.284Z,4.22
2023-03-21T00:40:28.065Z,4.17
2023-03-21T00:42:59.152Z,4.16
2023-03-21T00:45:28.156Z,4.21
2023-03-21T00:47:56.668Z,4.29
2023-03-21T00:50:30.124Z,4.35
2023-03-21T00:52:58.917Z,4.39
2023-03-21T00:55:28.524Z,4.39
2023-03-21T00:58:02.156Z,4.40
2023-03-21T01:00:31.348Z,4.42
2023-03-21T01:03:17.680Z,4.44
2023-03-21T01:06:04.715Z,4.43
2023-03-21T01:08:52.243Z,4.40
2023-03-21T01:11:23.554Z,4.37
2023-03-21T01:13:59.620Z,4.33
2023-03-21T01:16:32.879Z,4.26
2023-03-21T01:19:03.336Z,4.20
2023-03-21T01:21:33.231Z,4.14
2023-03-21T01:24:02.192Z,4.10
2023-03-21T01:26:30.668Z,4.06
2023-03-21T01:28:59.167Z,4.07
2023-03-21T01:31:28.479Z,4.14
2023-03-21T01:33:56.852Z,4.18
2023-03-21T01:36:26.731Z,4.22
2023-03-21T01:39:00.331Z,4.25
2023-03-21T01:41:42.851Z,4.26
2023-03-21T01:44:20.872Z,4.29
2023-03-21T01:47:11.497Z,4.30
2023-03-21T01:49:41.797Z,4.27
2023-03-21T01:52:37.130Z,4.24
2023-03-21T01:55:12.529Z,4.17
2023-03-21T01:58:04.885Z,4.11
2023-03-21T02:00:46.746Z,4.07
2023-03-21T02:03:36.024Z,4.04
2023-03-21T02:06:34.359Z,3.99
2023-03-21T02:09:12.673Z,3.96
2023-03-21T02:11:41.137Z,3.90
2023-03-21T02:14:15.342Z,3.84
2023-03-21T02:17:01.848Z,3.83
2023-03-21T02:19:53.286Z,3.91
2023-03-21T02:22:38.014Z,3.97
2023-03-21T02:25:21.253Z,4.03
2023-03-21T02:27:56.154Z,4.07
2023-03-21T02:30:51.711Z,4.12
2023-03-21T02:34:08.025Z,4.12
2023-03-21T02:37:36.734Z,4.10
2023-03-21T02:40:40.077Z,4.04
2023-03-21T02:43:22.677Z,3.96
2023-03-21T02:46:03.760Z,3.86
2023-03-21T02:48:50.354Z,3.78
2023-03-21T02:51:21.572Z,3.71
2023-03-21T02:54:19.965Z,3.66
2023-03-21T02:56:43.404Z,3.59
2023-03-21T02:59:11.579Z,3.52
2023-03-21T03:01:40.748Z,3.45
2023-03-21T03:04:23.672Z,3.40
2023-03-21T03:06:58.833Z,3.38
2023-03-21T03:09:27.478Z,3.42
2023-03-21T03:12:01.921Z,3.48
2023-03-21T03:15:02.194Z,3.53
2023-03-21T03:17:39.137Z,3.58
2023-03-21T03:20:17.515Z,3.59
2023-03-21T03:22:56.289Z,3.60
2023-03-21T03:25:41.698Z,3.60
2023-03-21T03:28:11.591Z,3.60
2023-03-21T03:30:48.836Z,3.58
2023-03-21T03:33:26.068Z,3.52
2023-03-21T03:36:04.959Z,3.47
2023-03-21T03:38:35.607Z,3.41
2023-03-21T03:41:19.527Z,3.36
2023-03-21T03:43:55.714Z,3.34
2023-03-21T03:46:35.192Z,3.32
2023-03-21T03:49:15.925Z,3.26
2023-03-21T03:51:49.152Z,3.21
2023-03-21T03:54:39.610Z,3.17
2023-03-21T03:57:08.416Z,3.19
2023-03-21T03:59:38.215Z,3.23
2023-03-21T04:02:15.095Z,3.25
2023-03-21T04:04:44.935Z,3.28
2023-03-21T04:07:13.218Z,3.32
2023-03-21T04:09:44.882Z,3.35
2023-03-21T04:12:16.105Z,3.37
2023-03-21T04:14:56.979Z,3.40
2023-03-21T04:17:35.002Z,3.42
2023-03-21T04:20:12.074Z,3.42
2023-03-21T04:22:44.831Z,3.38
2023-03-21T04:25:18.923Z,3.32
2023-03-21T04:27:56.644Z,3.26
2023-03-21T04:30:44.975Z,3.18
2023-03-21T04:33:20.128Z,3.11
2023-03-21T04:35:56.838Z,3.07
2023-03-21T04:38:30.861Z,3.03
2023-03-21T04:41:02.296Z,2.99
2023-03-21T04:43:32.244Z,2.96
2023-03-21T04:46:00.782Z,2.95
2023-03-21T04:48:29.308Z,3.03
2023-03-21T04:50:57.564Z,3.16
2023-03-21T04:53:26.209Z,3.31
2023-03-21T04:55:55.646Z,3.45
2023-03-21T04:58:24.298Z,3.59
2023-03-21T05:00:53.165Z,3.70
2023-03-21T05:03:22.689Z,3.78
2023-03-21T05:05:51.289Z,3.84
2023-03-21T05:08:20.544Z,3.90
2023-03-21T05:10:52.755Z,3.96
2023-03-21T05:15:57.494Z,3.93
2023-03-21T05:18:26.983Z,4.14
2023-03-21T05:21:10.822Z,4.19
2023-03-21T05:23:39.727Z,4.28
2023-03-21T05:26:09.114Z,4.40
2023-03-21T05:28:57.565Z,4.55
2023-03-21T05:31:26.687Z,4.69
2023-03-21T05:34:05.498Z,4.82
2023-03-21T05:36:40.229Z,4.91
2023-03-21T05:39:10.565Z,4.98
2023-03-21T05:41:42.467Z,5.05
2023-03-21T05:44:11.026Z,5.12
2023-03-21T05:46:40.564Z,5.16
2023-03-21T05:49:12.600Z,5.21
2023-03-21T05:51:42.488Z,5.34
2023-03-21T05:54:16.925Z,5.49
2023-03-21T05:56:49.628Z,5.60
2023-03-21T05:59:27.434Z,5.71
2023-03-21T06:01:57.124Z,5.80
2023-03-21T06:04:25.887Z,5.86
2023-03-21T06:06:54.682Z,5.91
2023-03-21T06:09:27.719Z,5.97
2023-03-21T06:12:00.463Z,6.02
2023-03-21T06:14:28.860Z,6.07
2023-03-21T06:17:16.994Z,6.14
2023-03-21T06:19:50.136Z,6.26
2023-03-21T06:22:31.859Z,6.40
2023-03-21T06:25:02.385Z,6.57
2023-03-21T06:27:32.810Z,6.69
2023-03-21T06:30:08.793Z,6.79
2023-03-21T06:32:44.630Z,6.90
2023-03-21T06:35:15.663Z,6.99
2023-03-21T06:37:46.395Z,7.06
2023-03-21T06:40:15.099Z,7.15
2023-03-21T06:42:43.685Z,7.20
2023-03-21T06:45:12.436Z,7.33
2023-03-21T06:47:41.818Z,7.51
2023-03-21T06:50:19.850Z,7.69
2023-03-21T06:52:48.605Z,7.85
2023-03-21T06:55:19.407Z,7.96
2023-03-21T06:57:48.069Z,8.05
2023-03-21T07:00:17.398Z,8.13
2023-03-21T07:02:56.991Z,8.21
2023-03-21T07:05:27.447Z,8.25
2023-03-21T07:07:55.799Z,8.32
2023-03-21T07:10:25.907Z,8.37
2023-03-21T07:13:00.159Z,8.51
2023-03-21T07:15:40.872Z,8.64
2023-03-21T07:18:09.528Z,8.78
2023-03-21T07:20:40.760Z,8.90
2023-03-21T07:23:09.446Z,8.99
2023-03-21T07:25:38.002Z,9.09
2023-03-21T07:28:09.321Z,9.18
2023-03-21T07:30:38.016Z,9.25
2023-03-21T07:33:07.841Z,9.33
2023-03-21T07:35:37.756Z,9.40
2023-03-21T07:38:08.659Z,9.48
2023-03-21T07:40:39.579Z,9.55
2023-03-21T07:43:11.394Z,9.65
2023-03-21T07:45:42.763Z,9.80
2023-03-21T07:48:13.223Z,9.94
2023-03-21T07:50:41.597Z,10.08
2023-03-21T07:53:10.380Z,10.20
2023-03-21T07:55:40.961Z,10.32
2023-03-21T07:58:10.008Z,10.43
2023-03-21T08:00:38.891Z,10.51
2023-03-21T08:03:07.294Z,10.56
2023-03-21T08:05:41.279Z,10.64
2023-03-21T08:08:10.478Z,10.71
2023-03-21T08:10:38.848Z,10.80
2023-03-21T08:13:08.987Z,10.96
2023-03-21T08:15:42.574Z,11.13
2023-03-21T08:18:11.428Z,11.30
2023-03-21T08:20:42.000Z,11.42
2023-03-21T08:23:11.113Z,11.55
2023-03-21T08:25:39.882Z,11.66
2023-03-21T08:28:08.269Z,11.78
2023-03-21T08:30:36.861Z,11.88
2023-03-21T08:33:05.045Z,11.98
2023-03-21T08:35:34.358Z,12.09
2023-03-21T08:38:04.041Z,12.21
2023-03-21T08:40:32.832Z,12.33
2023-03-21T08:43:01.203Z,12.42
2023-03-21T08:45:30.811Z,12.51
2023-03-21T08:48:02.853Z,12.59
2023-03-21T08:50:32.013Z,12.66
2023-03-21T08:53:00.375Z,12.63
2023-03-21T08:55:28.843Z,12.62
2023-03-21T08:57:58.337Z,12.62
2023-03-21T09:00:27.442Z,12.63
2023-03-21T09:02:56.193Z,12.62
2023-03-21T09:05:26.866Z,12.63
2023-03-21T09:07:55.078Z,12.65
2023-03-21T09:10:23.416Z,12.66
2023-03-21T09:12:55.987Z,12.69
2023-03-21T09:15:28.839Z,12.72
2023-03-21T09:17:58.992Z,12.77
2023-03-21T09:20:33.197Z,12.88
2023-03-21T09:23:02.110Z,13.03
2023-03-21T09:25:35.208Z,13.22
2023-03-21T09:28:05.530Z,13.40
2023-03-21T09:30:34.712Z,13.56
2023-03-21T09:33:08.896Z,13.72
2023-03-21T09:35:37.680Z,13.89
2023-03-21T09:38:07.139Z,14.04
2023-03-21T09:41:00.100Z,14.17
2023-03-21T09:43:39.937Z,14.31
2023-03-21T09:46:12.426Z,14.43
2023-03-21T09:48:56.400Z,14.54
2023-03-21T09:51:37.420Z,14.66
2023-03-21T09:54:08.876Z,14.79
2023-03-21T09:56:37.359Z,14.93
2023-03-21T09:59:07.372Z,15.05
2023-03-21T10:01:42.107Z,15.14
2023-03-21T10:04:15.522Z,15.21
2023-03-21T10:06:45.873Z,15.31
2023-03-21T10:09:32.681Z,15.42
2023-03-21T10:12:14.872Z,15.58
2023-03-21T10:14:44.648Z,15.73
2023-03-21T10:17:22.245Z,15.86
2023-03-21T10:20:12.141Z,15.96
2023-03-21T10:22:44.909Z,16.06
2023-03-21T10:25:34.180Z,16.10
2023-03-21T10:28:03.689Z,16.15
2023-03-21T10:30:53.275Z,16.21
2023-03-21T10:33:42.692Z,16.23
2023-03-21T10:36:31.796Z,16.27
2023-03-21T10:39:07.448Z,16.33
2023-03-21T10:41:36.236Z,16.34
2023-03-21T10:44:17.035Z,16.39
2023-03-21T10:46:56.160Z,16.50
2023-03-21T10:49:26.977Z,16.63
2023-03-21T10:51:58.222Z,16.72
2023-03-21T10:54:29.367Z,16.75
2023-03-21T10:56:58.356Z,16.71
2023-03-21T10:59:28.027Z,16.73
2023-03-21T11:01:56.731Z,16.78
2023-03-21T11:04:28.112Z,16.81
2023-03-21T11:07:01.465Z,16.83
2023-03-21T11:09:53.521Z,16.87
2023-03-21T11:12:41.163Z,16.96
2023-03-21T11:15:33.920Z,17.10
2023-03-21T11:18:18.488Z,17.24
2023-03-21T11:20:51.669Z,17.36
2023-03-21T11:23:21.245Z,17.46
2023-03-21T11:25:51.000Z,17.51
2023-03-21T11:28:23.059Z,17.46
2023-03-21T11:30:57.990Z,17.36
2023-03-21T11:33:53.940Z,17.34
2023-03-21T11:36:22.601Z,17.45
2023-03-21T11:38:53.404Z,17.56
2023-03-21T11:41:32.466Z,17.66
2023-03-21T11:44:29.730Z,17.74
2023-03-21T11:46:58.515Z,17.82
2023-03-21T11:49:33.012Z,17.90
2023-03-21T11:52:16.301Z,18.05
2023-03-21T11:55:03.732Z,18.18
2023-03-21T11:58:20.194Z,18.25
2023-03-21T12:00:57.342Z,18.22
2023-03-21T12:03:47.649Z,18.28
2023-03-21T12:06:36.628Z,18.39
2023-03-21T12:09:32.359Z,18.54
2023-03-21T12:12:09.438Z,18.69
2023-03-21T12:14:48.942Z,18.79
2023-03-21T12:17:39.375Z,18.91
2023-03-21T12:20:21.506Z,19.06
2023-03-21T12:23:06.603Z,19.13
2023-03-21T12:25:40.119Z,19.18
2023-03-21T12:28:31.743Z,19.17
2023-03-21T12:31:16.924Z,19.09
2023-03-21T12:33:48.837Z,19.05
2023-03-21T12:36:41.753Z,19.14
2023-03-21T12:39:12.595Z,19.25
2023-03-21T12:41:44.857Z,19.29
2023-03-21T12:44:17.548Z,19.33
2023-03-21T12:46:58.856Z,19.38
2023-03-21T12:49:33.351Z,19.36
2023-03-21T12:52:11.360Z,19.34
2023-03-21T12:55:00.388Z,19.28
2023-03-21T12:57:47.764Z,19.21
2023-03-21T13:00:26.010Z,19.15
2023-03-21T13:02:58.900Z,19.11
2023-03-21T13:05:39.303Z,19.03
2023-03-21T13:08:24.268Z,18.96
2023-03-21T13:10:52.646Z,18.94
2023-03-21T13:13:39.407Z,18.91
2023-03-21T13:16:29.490Z,18.87
2023-03-21T13:19:04.276Z,18.84
2023-03-21T13:21:59.278Z,18.85
2023-03-21T13:24:38.416Z,18.87
2023-03-21T13:27:15.084Z,18.83
2023-03-21T13:29:47.903Z,18.74
2023-03-21T13:32:28.272Z,18.60
2023-03-21T13:34:58.433Z,18.54
2023-03-21T13:37:34.727Z,18.52
2023-03-21T13:40:14.421Z,18.47
2023-03-21T13:42:45.914Z,18.43
2023-03-21T13:45:24.962Z,18.34
2023-03-21T13:48:00.682Z,18.24
2023-03-21T13:50:52.997Z,18.15
2023-03-21T13:53:22.609Z,18.06
2023-03-21T13:56:09.100Z,17.98
2023-03-21T13:58:51.401Z,17.92
2023-03-21T14:01:31.852Z,17.85
2023-03-21T14:04:20.826Z,17.82
2023-03-21T14:06:57.607Z,17.80
2023-03-21T14:09:29.999Z,17.78
2023-03-21T14:12:03.929Z,17.72
2023-03-21T14:14:42.107Z,17.60
2023-03-21T14:17:26.612Z,17.47
2023-03-21T14:20:12.299Z,17.30
2023-03-21T14:22:47.606Z,17.14
2023-03-21T14:25:17.724Z,17.02
2023-03-21T14:27:49.312Z,16.91
2023-03-21T14:30:29.413Z,16.80
2023-03-21T14:32:59.027Z,16.70
2023-03-21T14:35:31.659Z,16.63
2023-03-21T14:38:07.539Z,16.59
2023-03-21T14:40:38.498Z,16.54
2023-03-21T14:43:06.968Z,16.51
2023-03-21T14:45:37.419Z,16.50
2023-03-21T14:48:13.936Z,16.50
2023-03-21T14:50:45.169Z,16.57
2023-03-21T14:53:21.549Z,16.64
2023-03-21T14:56:02.307Z,16.66
2023-03-21T14:58:34.318Z,16.66
2023-03-21T15:01:04.496Z,16.63
2023-03-21T15:03:32.677Z,16.59
2023-03-21T15:06:05.859Z,16.54
2023-03-21T15:08:34.856Z,16.48
2023-03-21T15:11:07.528Z,16.42
2023-03-21T15:13:42.058Z,16.36
2023-03-21T15:16:11.406Z,16.26
2023-03-21T15:18:39.633Z,16.16
2023-03-21T15:21:13.401Z,16.06
2023-03-21T15:23:46.021Z,15.98
2023-03-21T15:26:22.588Z,15.91
2023-03-21T15:28:51.943Z,15.83
2023-03-21T15:31:21.821Z,15.74
2023-03-21T15:33:51.680Z,15.67
2023-03-21T15:36:22.283Z,15.63
2023-03-21T15:38:51.359Z,15.59
2023-03-21T15:41:19.927Z,15.56
2023-03-21T15:43:49.538Z,15.53
2023-03-21T15:46:48.486Z,15.50
2023-03-21T15:49:16.732Z,15.46
2023-03-21T15:52:07.473Z,15.41
2023-03-21T15:54:42.354Z,15.37
2023-03-21T15:57:30.130Z,15.33
2023-03-21T16:00:12.012Z,15.29
2023-03-21T16:02:41.411Z,15.25
2023-03-21T16:05:27.581Z,15.22
2023-03-21T16:08:03.074Z,15.20
2023-03-21T16:10:37.577Z,15.17
2023-03-21T16:13:06.780Z,15.16
2023-03-21T16:15:34.888Z,15.16
2023-03-21T16:18:04.738Z,15.14
2023-03-21T16:20:41.620Z,15.11
2023-03-21T16:23:11.682Z,15.08
2023-03-21T16:25:44.551Z,15.04
2023-03-21T16:28:14.594Z,14.99
2023-03-21T16:30:43.234Z,14.95
2023-03-21T16:33:13.125Z,14.90
2023-03-21T16:35:42.174Z,14.85
2023-03-21T16:38:11.834Z,14.81
2023-03-21T16:40:43.592Z,14.76
2023-03-21T16:43:12.183Z,14.71
2023-03-21T16:45:42.150Z,14.69
2023-03-21T16:48:16.561Z,14.66
2023-03-21T16:50:48.269Z,14.61
2023-03-21T16:53:17.165Z,14.57
2023-03-21T16:55:46.687Z,14.56
2023-03-21T16:58:21.818Z,14.55
2023-03-21T17:00:50.604Z,14.54
2023-03-21T17:03:19.348Z,14.51
2023-03-21T17:05:49.817Z,14.46
2023-03-21T17:08:19.722Z,14.40
2023-03-21T17:10:48.218Z,14.37
2023-03-21T17:13:17.003Z,14.32
2023-03-21T17:15:45.115Z,14.27
2023-03-21T17:18:16.634Z,14.23
2023-03-21T17:20:46.955Z,14.16
2023-03-21T17:23:15.613Z,14.06
2023-03-21T17:25:44.832Z,13.95
2023-03-21T17:28:13.220Z,13.85
2023-03-21T17:33:46.833Z,13.54
2023-03-21T17:36:17.051Z,13.64
2023-03-21T17:38:48.446Z,13.59
2023-03-21T17:41:17.914Z,13.51
2023-03-21T17:43:46.492Z,13.44
2023-03-21T17:46:16.703Z,13.39
2023-03-21T17:48:45.145Z,13.40
2023-03-21T17:51:16.134Z,13.44
2023-03-21T17:53:48.582Z,13.46
2023-03-21T17:56:23.007Z,13.46
2023-03-21T17:58:51.319Z,13.45
2023-03-21T18:01:19.819Z,13.42
2023-03-21T18:03:48.167Z,13.39
2023-03-21T18:06:18.498Z,13.36
2023-03-21T18:08:47.433Z,13.30
2023-03-21T18:11:16.586Z,13.24
2023-03-21T18:13:45.214Z,13.18
2023-03-21T18:16:16.218Z,13.13
2023-03-21T18:18:46.946Z,13.06
2023-03-21T18:21:18.985Z,13.00
2023-03-21T18:23:48.799Z,12.94
2023-03-21T18:26:19.732Z,12.94
2023-03-21T18:29:36.789Z,12.99
2023-03-21T18:31:45.270Z,13.01
2023-03-21T18:34:15.520Z,13.02
2023-03-21T18:36:44.238Z,13.01
2023-03-21T18:39:13.417Z,12.99
2023-03-21T18:41:42.596Z,12.97
2023-03-21T18:44:15.904Z,12.95
2023-03-21T18:46:51.166Z,12.92
2023-03-21T18:52:10.837Z,12.83
2023-03-21T18:54:41.066Z,12.80
2023-03-21T18:59:59.605Z,12.69
2023-03-21T19:02:27.703Z,12.66
2023-03-21T19:04:57.950Z,12.68
2023-03-21T19:07:26.510Z,12.73
2023-03-21T19:10:16.056Z,12.77
2023-03-21T19:12:43.750Z,12.78
2023-03-21T19:15:13.559Z,12.79
2023-03-21T19:20:32.623Z,12.77
2023-03-21T19:23:01.434Z,12.73
2023-03-21T19:25:29.623Z,12.70
2023-03-21T19:27:58.309Z,12.64
2023-03-21T19:30:27.812Z,12.59
2023-03-21T19:32:57.199Z,12.55
2023-03-21T19:35:25.914Z,12.51
2023-03-21T19:37:54.365Z,12.49
2023-03-21T19:40:22.746Z,12.50
2023-03-21T19:42:51.471Z,12.52
2023-03-21T19:45:21.760Z,12.50
2023-03-21T19:47:50.178Z,12.47
2023-03-21T19:53:07.151Z,12.49
2023-03-21T19:55:36.533Z,12.48
2023-03-21T19:58:07.442Z,12.47
2023-03-21T20:00:38.347Z,12.43
2023-03-21T20:03:08.988Z,12.41
2023-03-21T20:05:39.932Z,12.40
2023-03-21T20:08:10.894Z,12.44
2023-03-21T20:10:41.058Z,12.51
2023-03-21T20:13:10.860Z,12.57
2023-03-21T20:15:46.013Z,12.59
2023-03-21T20:18:24.226Z,12.59
2023-03-21T20:20:53.244Z,12.59
2023-03-21T20:23:21.586Z,12.57
2023-03-21T20:25:50.835Z,12.55
2023-03-21T20:28:25.909Z,12.51
2023-03-21T20:31:02.155Z,12.49
2023-03-21T20:33:31.413Z,12.46
2023-03-21T20:38:52.290Z,12.51
2023-03-21T20:41:20.955Z,12.57
2023-03-21T20:46:38.205Z,12.64
2023-03-21T20:49:09.522Z,12.64
2023-03-21T20:52:45.792Z,12.62
2023-03-21T20:54:27.979Z,12.56
2023-03-21T20:56:57.697Z,12.48
2023-03-21T20:59:28.115Z,12.39
2023-03-21T21:01:59.509Z,12.30
2023-03-21T21:04:52.780Z,12.23
2023-03-21T21:07:21.220Z,12.19
2023-03-21T21:09:54.729Z,12.19
2023-03-21T21:12:27.789Z,12.18
2023-03-21T21:14:56.910Z,12.17
2023-03-21T21:17:57.938Z,12.16
2023-03-21T21:20:20.492Z,12.14
2023-03-21T21:22:59.442Z,12.13
2023-03-21T21:25:32.122Z,12.12
2023-03-21T21:28:02.097Z,12.10
2023-03-21T21:30:38.195Z,12.09
2023-03-21T21:33:07.163Z,12.16
2023-03-21T21:35:36.098Z,12.23
2023-03-21T21:38:04.743Z,12.30
2023-03-21T21:40:33.235Z,12.35
2023-03-21T21:43:03.785Z,12.36
2023-03-21T21:45:32.550Z,12.36
2023-03-21T21:48:01.076Z,12.35
2023-03-21T21:50:30.752Z,12.35
2023-03-21T21:53:03.988Z,12.34
2023-03-21T21:55:34.208Z,12.35
2023-03-21T21:58:03.978Z,12.34
2023-03-21T22:00:32.748Z,12.33
2023-03-21T22:03:02.085Z,12.38
2023-03-21T22:05:31.481Z,12.46
2023-03-21T22:08:04.382Z,12.51
2023-03-21T22:10:34.256Z,12.52
2023-03-21T22:13:02.529Z,12.52
2023-03-21T22:15:36.821Z,12.51
2023-03-21T22:18:05.331Z,12.45
2023-03-21T22:20:34.142Z,12.42
2023-03-21T22:23:02.500Z,12.38
2023-03-21T22:25:33.334Z,12.31
2023-03-21T22:28:01.576Z,12.26
2023-03-21T22:30:31.117Z,12.23
2023-03-21T22:33:09.209Z,12.23
2023-03-21T22:35:39.618Z,12.21
2023-03-21T22:38:09.142Z,12.17
2023-03-21T22:40:38.103Z,12.11
2023-03-21T22:43:09.098Z,12.06
2023-03-21T22:45:37.721Z,12.03
2023-03-21T22:48:06.688Z,12.00
2023-03-21T22:50:35.574Z,11.97
2023-03-21T22:53:04.052Z,11.94
2023-03-21T22:55:32.584Z,11.93
2023-03-21T22:58:01.319Z,11.94
2023-03-21T23:00:29.800Z,11.90
2023-03-21T23:02:59.843Z,11.85
2023-03-21T23:05:28.810Z,11.80
2023-03-21T23:07:58.624Z,11.76
2023-03-21T23:10:27.821Z,11.75
2023-03-21T23:12:56.232Z,11.72
2023-03-21T23:15:24.598Z,11.70
2023-03-21T23:17:52.943Z,11.73
2023-03-21T23:20:21.236Z,11.77
2023-03-21T23:22:51.852Z,11.80
2023-03-21T23:25:21.173Z,11.81
2023-03-21T23:27:49.453Z,11.82
2023-03-21T23:30:18.024Z,11.83
2023-03-21T23:32:46.406Z,11.82
2023-03-21T23:35:16.834Z,11.80
2023-03-21T23:37:52.752Z,11.76
2023-03-21T23:40:21.342Z,11.75
2023-03-21T23:42:49.757Z,11.73
2023-03-21T23:45:18.105Z,11.76
2023-03-21T23:47:47.826Z,11.82
2023-03-21T23:50:16.639Z,11.84
2023-03-21T23:52:49.904Z,11.84
2023-03-21T23:55:18.443Z,11.84
2023-03-21T23:57:46.917Z,11.84
